»·PEaware :: C6BFG KEYW-KFLL

C6BFG :: KEYW-KFLL

FLIGHT INFORMATION

Flight Status: Arrived
Operator: Privately registered:
Canada
More flights under this callsign
Pilot: Damien D. (8960)
Aircraft: BEECH AIRCRAFT DUKE
(BE60)
More flights by this aircraft type
Origin: KEYW Key West Intl
United States
Destination: KFLL Ft Lauderdale-Hollywood Intl
United States
More flights between these airports :: More routes between these airports
Route: STRAP TIGAR CARNU DVALL WEVER FAMIN FRRDY HOLID PIONN
File this flight plan on PilotEdge
Remarks:
Altitude:
(Current/Filed)
11,000ft
Speed:
(Current/Filed)
220kts
Departed: 10-Oct-15 11:48 AM
Arrived: 10-Oct-15 12:32 PM
Distance/Time
Traveled:
126nm/0:44
Distance/Time
To Go:
Arrived

Flight Plot

Page will automatically refresh every two minutes.


Map Options




Map Legend


Flown Route
Filed Route
Departure Airport
Arrival Airport
Navaid (VOR, NDB)
Fix

Horizontal Profiles

Position Reports

Time Latitude Longitude Heading Altitude Ground
Speed
10-Oct-15 11:22 33.402152 -118.418017 309 1605ft 0kts
10-Oct-15 11:23 33.402152 -118.418017 309 1605ft 0kts
10-Oct-15 11:24 33.402152 -118.418017 309 1605ft 0kts
10-Oct-15 11:25 33.402152 -118.418017 309 1605ft 0kts
10-Oct-15 11:26 33.402152 -118.418017 309 1605ft 0kts
10-Oct-15 11:27 24.554428 -81.756629 181 6ft 0kts
10-Oct-15 11:28 24.554428 -81.756629 181 6ft 0kts
10-Oct-15 11:29 24.554428 -81.756629 181 6ft 0kts
10-Oct-15 11:30 24.554428 -81.756629 181 6ft 0kts
10-Oct-15 11:31 24.554428 -81.756629 181 6ft 0kts
10-Oct-15 11:32 24.554428 -81.756629 181 6ft 0kts
10-Oct-15 11:33 24.554428 -81.756629 181 6ft 0kts
10-Oct-15 11:34 24.554428 -81.756629 181 6ft 0kts
10-Oct-15 11:35 24.554428 -81.756629 181 6ft 0kts
10-Oct-15 11:36 24.554428 -81.756629 181 6ft 0kts
10-Oct-15 11:37 24.554428 -81.756629 181 6ft 0kts
10-Oct-15 11:38 24.554428 -81.756629 181 6ft 0kts
10-Oct-15 11:39 24.554427 -81.756629 181 6ft 0kts
10-Oct-15 11:40 24.554426 -81.756629 181 6ft 0kts
10-Oct-15 11:41 24.554423 -81.756629 181 6ft 0kts
10-Oct-15 11:42 24.554417 -81.756629 181 6ft 0kts
10-Oct-15 11:43 24.554674 -81.756496 77 6ft 5kts
10-Oct-15 11:44 24.555011 -81.753214 65 6ft 7kts
10-Oct-15 11:45 24.555667 -81.752522 343 6ft 0kts
10-Oct-15 11:46 24.555669 -81.752523 343 6ft 0kts
10-Oct-15 11:47 24.555939 -81.770873 267 226ft 118kts
10-Oct-15 11:48 24.578454 -81.781179 35 1513ft 168kts
10-Oct-15 11:49 24.620697 -81.748382 31 2389ft 199kts
10-Oct-15 11:50 24.666965 -81.715367 31 3619ft 191kts
10-Oct-15 11:51 24.710049 -81.682593 31 5106ft 182kts
10-Oct-15 11:52 24.750036 -81.651677 31 6575ft 169kts
10-Oct-15 11:53 24.787752 -81.621967 31 8061ft 163kts
10-Oct-15 11:54 24.824407 -81.592918 31 9555ft 159kts
10-Oct-15 11:55 24.860297 -81.564646 31 10898ft 167kts
10-Oct-15 11:56 24.906052 -81.529562 31 10968ft 223kts
10-Oct-15 11:57 24.959402 -81.489312 31 10962ft 237kts
10-Oct-15 11:58 25.014363 -81.447995 31 10960ft 239kts
10-Oct-15 11:59 25.069472 -81.406627 31 10960ft 240kts
10-Oct-15 12:00 25.125065 -81.364937 31 10960ft 240kts
10-Oct-15 12:01 25.180474 -81.323423 31 10960ft 240kts
10-Oct-15 12:02 25.233611 -81.283649 31 10960ft 240kts
10-Oct-15 12:03 25.289115 -81.242139 31 10960ft 240kts
10-Oct-15 12:04 25.344627 -81.200661 31 10954ft 240kts
10-Oct-15 12:05 25.400217 -81.159163 31 10953ft 240kts
10-Oct-15 12:06 25.455776 -81.117724 31 10952ft 240kts
10-Oct-15 12:07 25.511365 -81.076301 31 10950ft 240kts
10-Oct-15 12:08 25.566594 -81.035137 31 10946ft 239kts
10-Oct-15 12:09 25.612373 -81.059098 299 10950ft 217kts
10-Oct-15 12:10 25.664102 -81.096118 329 10945ft 224kts
10-Oct-15 12:11 25.719511 -81.127880 329 10953ft 224kts
10-Oct-15 12:12 25.775329 -81.159437 336 10949ft 226kts
10-Oct-15 12:13 25.811189 -81.113730 91 10955ft 242kts
10-Oct-15 12:14 25.806943 -81.038635 91 10934ft 243kts
10-Oct-15 12:15 25.823628 -80.966642 67 10933ft 243kts
10-Oct-15 12:16 25.844425 -80.908007 62 10935ft 243kts
10-Oct-15 12:17 25.876419 -80.841764 60 10932ft 243kts
10-Oct-15 12:18 25.908863 -80.775761 60 10930ft 243kts
10-Oct-15 12:19 25.941365 -80.709756 59 10877ft 245kts
10-Oct-15 12:20 25.974814 -80.642041 60 10261ft 247kts
10-Oct-15 12:21 26.007800 -80.575469 60 9640ft 244kts
10-Oct-15 12:22 26.041416 -80.508391 59 8526ft 254kts
10-Oct-15 12:23 26.075830 -80.439619 59 7025ft 253kts
10-Oct-15 12:24 26.109714 -80.371951 58 5526ft 248kts
10-Oct-15 12:25 26.157326 -80.319464 43 4031ft 225kts
10-Oct-15 12:26 26.189180 -80.268852 101 2496ft 208kts
10-Oct-15 12:27 26.144847 -80.254870 188 1875ft 171kts
10-Oct-15 12:28 26.098672 -80.243643 131 1443ft 159kts
10-Oct-15 12:29 26.078230 -80.204759 104 844ft 128kts
10-Oct-15 12:30 26.076969 -80.166751 90 89ft 114kts
10-Oct-15 12:31 26.076174 -80.149185 115 12ft 22kts
10-Oct-15 12:32 26.074405 -80.144900 180 12ft 12kts

Navigation Log

Ident Type
Flight plan parsing failed, navigation log unavailable